Abbeville, Alabama
Current Conditions -  °F | °C
As of 12:53 PM on Saturday 25 Oct 2014 (Local Time) from KDHN Reporting Station
Clear Clear  
Wind Chill: 75°   Ceiling: Unl
Heat Index: 75°   Visibility: 10mi
Dew Point: 41°   Wind: 6mph
Humidity: 29%   Direction: 320°NW
Pressure: 30.07"   Gusts: NA
Location:  31.57°N, 85.25°W
Report Text: KDHN 251753Z 32005KT 10SM CLR 24/05 A3007 RMK AO2 SLP180 T02390050 10250 20083 58016
Loading
Personal Weather Stations






























Interactive Weather Map New forecast layout! Learn more

10-Day Weather Forecast

Advertisements
Track Severe Weather on mobile